createdAt,value
2018-10-11T01:13:12.057Z,33.53
2018-10-11T01:24:40.065Z,34.00
2018-10-11T02:22:01.075Z,35.10
2018-10-11T02:24:43.350Z,36.03
2018-10-11T03:18:49.034Z,36.47
2018-10-11T04:15:57.545Z,37.40
2018-10-11T04:18:25.816Z,36.07
2018-10-11T04:24:01.808Z,38.07
2018-10-11T05:24:03.418Z,41.80
2018-10-11T06:24:02.755Z,38.17
2018-10-11T08:18:57.462Z,24.73
2018-10-11T09:12:33.165Z,21.27
2018-10-11T09:21:18.181Z,20.30
2018-10-11T09:26:38.905Z,21.00
2018-10-11T09:29:10.580Z,19.87
2018-10-11T09:31:38.828Z,19.50
2018-10-11T09:34:07.177Z,20.33
2018-10-11T09:36:35.610Z,19.43
2018-10-11T09:39:07.124Z,19.33
2018-10-11T09:41:35.393Z,19.50
2018-10-11T09:44:03.664Z,19.50
2018-10-11T09:46:32.014Z,19.97
2018-10-11T09:49:00.274Z,21.60
2018-10-11T09:51:28.494Z,19.13
2018-10-11T09:53:56.723Z,18.70
2018-10-11T09:56:32.758Z,18.83
2018-10-11T09:59:01.030Z,18.50
2018-10-11T10:01:34.615Z,17.97
2018-10-11T10:04:02.875Z,17.43
2018-10-11T10:06:31.157Z,18.87
2018-10-11T10:08:59.990Z,17.10
2018-10-11T10:11:28.254Z,17.73
2018-10-11T10:14:09.098Z,17.90
2018-10-11T13:27:30.190Z,13.23
2018-10-11T13:29:58.429Z,13.33
2018-10-11T13:32:26.706Z,13.00
2018-10-11T13:34:54.968Z,13.20
2018-10-11T13:37:23.266Z,13.07
2018-10-11T13:39:54.792Z,13.40
2018-10-11T13:42:19.815Z,14.37
2018-10-11T13:44:48.050Z,13.73
2018-10-11T13:47:16.321Z,13.90
2018-10-11T13:49:44.593Z,13.80
2018-10-11T13:52:15.494Z,13.13
2018-10-11T13:54:41.120Z,12.77
2018-10-11T13:57:09.451Z,13.13
2018-10-11T13:59:37.741Z,14.27
2018-10-11T14:02:06.018Z,12.83
2018-10-11T14:04:34.345Z,13.30
2018-10-11T14:07:02.626Z,12.87
2018-10-11T14:09:30.880Z,12.80
2018-10-11T14:11:59.149Z,12.87
2018-10-11T14:23:21.678Z,12.77
2018-10-11T14:25:49.901Z,12.77
2018-10-11T17:20:21.683Z,15.93
2018-10-11T18:12:13.481Z,15.97
2018-10-11T18:14:41.839Z,16.77
2018-10-11T18:20:02.388Z,15.83
2018-10-11T18:22:37.412Z,15.67
2018-10-11T18:25:06.974Z,16.83
2018-10-11T18:27:35.498Z,15.83
2018-10-11T18:30:03.836Z,16.50
2018-10-11T18:32:32.173Z,16.83
2018-10-11T18:35:00.456Z,16.30
2018-10-11T18:37:28.865Z,16.80
2018-10-11T18:39:57.280Z,16.20
2018-10-11T18:42:26.644Z,17.30
2018-10-11T18:44:54.981Z,16.47
2018-10-11T18:47:23.274Z,17.17
2018-10-11T18:49:51.588Z,15.93
2018-10-11T18:52:19.857Z,16.33
2018-10-11T18:54:48.161Z,16.37
2018-10-11T18:57:16.490Z,15.93
2018-10-11T18:59:44.773Z,16.43
2018-10-11T19:02:13.107Z,15.63
2018-10-11T19:04:41.502Z,15.60
2018-10-11T19:07:10.082Z,16.30
2018-10-11T19:09:38.373Z,17.27
2018-10-11T19:12:06.639Z,16.03
2018-10-11T19:14:37.901Z,15.83
2018-10-11T19:31:29.679Z,16.87
2018-10-11T19:33:58.016Z,18.03
2018-10-11T19:36:26.314Z,17.33
2018-10-11T19:38:54.617Z,17.67
2018-10-11T19:41:22.929Z,17.80
2018-10-11T19:43:51.202Z,18.60
2018-10-11T19:46:19.461Z,17.97
2018-10-11T19:48:47.753Z,18.60
2018-10-11T19:51:16.185Z,18.23
2018-10-11T19:53:44.485Z,17.77
2018-10-11T19:56:12.840Z,17.97
2018-10-11T19:58:41.103Z,17.70
2018-10-11T20:01:09.385Z,18.20
2018-10-11T20:03:38.318Z,17.80
2018-10-11T20:06:06.757Z,17.33
2018-10-11T20:08:35.042Z,17.80
2018-10-11T20:11:03.346Z,17.13
2018-10-11T20:16:24.165Z,17.47
2018-10-11T20:18:52.446Z,17.57
2018-10-11T21:19:17.665Z,18.10
2018-10-11T21:21:51.649Z,18.17
2018-10-11T21:27:22.209Z,19.00
2018-10-11T21:29:50.477Z,20.23
2018-10-11T21:32:18.753Z,19.23
2018-10-11T21:34:47.037Z,18.30
2018-10-11T21:37:15.310Z,19.20
2018-10-11T21:39:43.627Z,18.43
2018-10-11T21:42:11.880Z,18.07
2018-10-11T21:44:40.175Z,19.53
2018-10-11T21:47:08.433Z,18.77
2018-10-11T21:49:36.729Z,18.60
2018-10-11T21:52:05.021Z,19.17
2018-10-11T21:54:33.294Z,18.67
2018-10-11T21:57:01.541Z,19.57
2018-10-11T21:59:29.839Z,19.07
2018-10-11T22:01:58.112Z,19.17
2018-10-11T22:04:26.401Z,17.90
2018-10-11T22:06:54.726Z,21.13
2018-10-11T22:09:23.020Z,23.43
2018-10-11T22:11:51.297Z,20.47
